Time;durP1;ratioP1;P1;durP2;ratioP2;P2;SDS_P1;SDS_P2;PMS_P1;PMS_P2;Temp;Humidity;BMP_temperature;BMP_pressure;BME280_temperature;BME280_humidity;BME280_pressure;Samples;Min_cycle;Max_cycle;Signal;HPM_P1;HPM_P2
2023/04/11 00:02:21;;;;;;;;;;;;;;;;;;5053350;28;4494;-75
2023/04/11 00:04:47;;;;;;;;;;;;;;;;;;5061802;28;4430;-73
2023/04/11 00:07:12;;;;;;;;;;;;;;;;;;5059817;28;1288;-74
2023/04/11 00:09:37;;;;;;;;;;;;;;;;;;5050671;28;4677;-74
2023/04/11 00:12:03;;;;;;;;;;;;;;;;;;5050910;28;4459;-73
2023/04/11 00:14:31;;;;;;;;;;;;;;;;;;5055948;28;4955;-74
2023/04/11 00:16:59;;;;;;;;;;;;;;;;;;5048919;28;4484;-73
2023/04/11 00:19:27;;;;;;;;;;;;;;;;;;5078239;28;4574;-72
2023/04/11 00:21:56;;;;;;;;;;;;;;;;;;5079084;28;3214;-74
2023/04/11 00:24:21;;;;;;;;;;;;;;;;;;5061943;28;4672;-75
2023/04/11 00:26:47;;;;;;;;;;;;;;;;;;5057022;28;4453;-75
2023/04/11 00:29:12;;;;;;;;;;;;;;;;;;5049889;28;4772;-76
2023/04/11 00:31:37;;;;;;;;;;;;;;;;;;5053410;28;5051;-75
2023/04/11 00:34:02;;;;;;;;;;;;;;;;;;5049742;28;1974;-75
2023/04/11 00:36:28;;;;;;;;;;;;;;;;;;5053024;28;4690;-75
2023/04/11 00:38:53;;;;;;;;;;;;;;;;;;5061921;28;4586;-75
2023/04/11 00:41:19;;;;;;;;;;;;;;;;;;5054515;28;4491;-74
2023/04/11 00:43:44;;;;;;;;;;;;;;;;;;5079943;28;4813;-74
2023/04/11 00:46:09;;;;;;;;;;;;;;;;;;5055501;28;2062;-74
2023/04/11 00:48:35;;;;;;;;;;;;;;;;;;5048427;28;4646;-74
2023/04/11 00:51:00;;;;;;;;;;;;;;;;;;5051926;28;4968;-74
2023/04/11 00:53:25;;;;;;;;;;;;;;;;;;5047992;28;5150;-74
2023/04/11 00:55:50;;;;;;;;;;;;;;;;;;5090333;28;5012;-75
2023/04/11 00:58:16;;;;;;;;;;;;;;;;;;5048248;28;1362;-75
2023/04/11 01:00:41;;;;;;;;;;;;;;;;;;5055164;28;4596;-74
2023/04/11 01:03:07;;;;;;;;;;;;;;;;;;5058020;28;4967;-75
2023/04/11 01:05:32;;;;;;;;;;;;;;;;;;5051651;28;5243;-74
2023/04/11 01:07:57;;;;;;;;;;;;;;;;;;5054060;28;5050;-75
2023/04/11 01:10:22;;;;;;;;;;;;;;;;;;5048144;28;4453;-73
2023/04/11 01:12:48;;;;;;;;;;;;;;;;;;5045002;28;2544;-76
2023/04/11 01:15:13;;;;;;;;;;;;;;;;;;5083317;28;4556;-76
2023/04/11 01:17:40;;;;;;;;;;;;;;;;;;5058602;28;4645;-74
2023/04/11 01:20:06;;;;;;;;;;;;;;;;;;5061509;28;5154;-76
2023/04/11 01:22:31;;;;;;;;;;;;;;;;;;5057456;28;4522;-75
2023/04/11 01:24:57;;;;;;;;;;;;;;;;;;5046894;28;4852;-76
2023/04/11 01:27:22;;;;;;;;;;;;;;;;;;5050283;28;4496;-75
2023/04/11 01:29:48;;;;;;;;;;;;;;;;;;5050651;28;4483;-75
2023/04/11 01:32:13;;;;;;;;;;;;;;;;;;5086681;28;4954;-76
2023/04/11 01:34:38;;;;;;;;;;;;;;;;;;5047609;28;5093;-74
2023/04/11 01:37:04;;;;;;;;;;;;;;;;;;5082809;28;1128;-75
2023/04/11 01:39:29;;;;;;;;;;;;;;;;;;5081147;28;4992;-73
2023/04/11 01:41:54;;;;;;;;;;;;;;;;;;5055992;28;5083;-74
2023/04/11 01:44:20;;;;;;;;;;;;;;;;;;5055840;28;4637;-75
2023/04/11 01:46:45;;;;;;;;;;;;;;;;;;5050395;28;5015;-74
2023/04/11 01:49:14;;;;;;;;;;;;;;;;;;5083818;28;2494;-75
2023/04/11 01:51:40;;;;;;;;;;;;;;;;;;5050462;28;4597;-73
2023/04/11 01:54:05;;;;;;;;;;;;;;;;;;5059084;28;4631;-72
2023/04/11 01:56:30;;;;;;;;;;;;;;;;;;5054972;28;4439;-75
2023/04/11 01:58:57;;;;;;;;;;;;;;;;;;5061813;28;4457;-75
2023/04/11 02:01:23;;;;;;;;;;;;;;;;;;5055872;28;4727;-75
2023/04/11 02:03:48;;;;;;;;;;;;;;;;;;5052848;28;1088;-77
2023/04/11 02:06:14;;;;;;;;;;;;;;;;;;5051494;28;4766;-75
2023/04/11 02:08:39;;;;;;;;;;;;;;;;;;5052388;28;4518;-73
2023/04/11 02:11:06;;;;;;;;;;;;;;;;;;5054836;28;4467;-74
2023/04/11 02:13:32;;;;;;;;;;;;;;;;;;5049804;28;4804;-75
2023/04/11 02:15:57;;;;;;;;;;;;;;;;;;5052507;28;1092;-74
2023/04/11 02:18:22;;;;;;;;;;;;;;;;;;5048370;28;4648;-74
2023/04/11 02:20:49;;;;;;;;;;;;;;;;;;5080084;28;4950;-74
2023/04/11 02:23:15;;;;;;;;;;;;;;;;;;5047208;28;4507;-72
2023/04/11 02:25:40;;;;;;;;;;;;;;;;;;5083232;28;5055;-74
2023/04/11 02:28:05;;;;;;;;;;;;;;;;;;5051971;28;3201;-75
2023/04/11 02:30:30;;;;;;;;;;;;;;;;;;5054941;28;4601;-73
2023/04/11 02:32:55;;;;;;;;;;;;;;;;;;5047695;28;5099;-74
2023/04/11 02:35:21;;;;;;;;;;;;;;;;;;5050340;28;4947;-75
2023/04/11 02:37:46;;;;;;;;;;;;;;;;;;5053990;28;5002;-74
2023/04/11 02:40:11;;;;;;;;;;;;;;;;;;5047369;28;2070;-75
2023/04/11 02:42:39;;;;;;;;;;;;;;;;;;5048016;28;4631;-75
2023/04/11 02:45:04;;;;;;;;;;;;;;;;;;5050037;28;5127;-73
2023/04/11 02:47:30;;;;;;;;;;;;;;;;;;5048875;28;4495;-74
2023/04/11 02:49:55;;;;;;;;;;;;;;;;;;5052544;28;4467;-76
2023/04/11 02:52:20;;;;;;;;;;;;;;;;;;5049173;28;2981;-75
2023/04/11 02:54:46;;;;;;;;;;;;;;;;;;5053797;28;5043;-75
2023/04/11 02:57:11;;;;;;;;;;;;;;;;;;5055708;28;4642;-75
2023/04/11 02:59:36;;;;;;;;;;;;;;;;;;5057633;28;5060;-75
2023/04/11 03:02:02;;;;;;;;;;;;;;;;;;5043644;28;4496;-74
2023/04/11 03:04:27;;;;;;;;;;;;;;;;;;5060551;28;4612;-75
2023/04/11 03:06:52;;;;;;;;;;;;;;;;;;5059645;28;3278;-74
2023/04/11 03:09:18;;;;;;;;;;;;;;;;;;5050989;28;5572;-75
2023/04/11 03:11:43;;;;;;;;;;;;;;;;;;5055336;28;4826;-75
2023/04/11 03:14:08;;;;;;;;;;;;;;;;;;5059619;28;4955;-74
2023/04/11 03:16:33;;;;;;;;;;;;;;;;;;5086277;28;5045;-74
2023/04/11 03:18:59;;;;;;;;;;;;;;;;;;5052393;28;2889;-74
2023/04/11 03:21:25;;;;;;;;;;;;;;;;;;5059430;28;4437;-73
2023/04/11 03:23:50;;;;;;;;;;;;;;;;;;5051845;28;5078;-74
2023/04/11 03:26:16;;;;;;;;;;;;;;;;;;5082477;28;4685;-75
2023/04/11 03:28:41;;;;;;;;;;;;;;;;;;5055114;28;4692;-74
2023/04/11 03:31:06;;;;;;;;;;;;;;;;;;5051534;28;3389;-73
2023/04/11 03:33:32;;;;;;;;;;;;;;;;;;5061101;28;5108;-72
2023/04/11 03:35:57;;;;;;;;;;;;;;;;;;5053675;28;4980;-72
2023/04/11 03:38:22;;;;;;;;;;;;;;;;;;5061591;28;4954;-72
2023/04/11 03:40:47;;;;;;;;;;;;;;;;;;5052005;28;5641;-73
2023/04/11 03:43:13;;;;;;;;;;;;;;;;;;5077011;28;1486;-73
2023/04/11 03:45:38;;;;;;;;;;;;;;;;;;5050922;28;4638;-73
2023/04/11 03:48:03;;;;;;;;;;;;;;;;;;5051011;28;4462;-73
2023/04/11 03:50:29;;;;;;;;;;;;;;;;;;5054695;28;4501;-74
2023/04/11 03:52:54;;;;;;;;;;;;;;;;;;5049067;28;5122;-72
2023/04/11 03:55:20;;;;;;;;;;;;;;;;;;5053149;28;2137;-73
2023/04/11 03:57:45;;;;;;;;;;;;;;;;;;5050228;28;4420;-72
2023/04/11 04:00:11;;;;;;;;;;;;;;;;;;5060494;28;4476;-72
2023/04/11 04:02:36;;;;;;;;;;;;;;;;;;5058007;28;4623;-71
2023/04/11 04:05:01;;;;;;;;;;;;;;;;;;5052100;28;5000;-72
2023/04/11 04:07:27;;;;;;;;;;;;;;;;;;5054978;28;4614;-72
2023/04/11 04:09:52;;;;;;;;;;;;;;;;;;5048941;28;1135;-72
2023/04/11 04:12:18;;;;;;;;;;;;;;;;;;5081219;28;4889;-72
2023/04/11 04:14:44;;;;;;;;;;;;;;;;;;5049463;28;4968;-72
2023/04/11 04:17:09;;;;;;;;;;;;;;;;;;5082928;28;4642;-71
2023/04/11 04:19:34;;;;;;;;;;;;;;;;;;5044252;28;4445;-71
2023/04/11 04:21:59;;;;;;;;;;;;;;;;;;5056884;28;1170;-70
2023/04/11 04:24:25;;;;;;;;;;;;;;;;;;5047917;28;4812;-71
2023/04/11 04:26:50;;;;;;;;;;;;;;;;;;5060777;28;5183;-72
2023/04/11 04:29:16;;;;;;;;;;;;;;;;;;5052157;28;4689;-72
2023/04/11 04:31:42;;;;;;;;;;;;;;;;;;5051456;28;4596;-73
2023/04/11 04:34:07;;;;;;;;;;;;;;;;;;5049548;28;1217;-72
2023/04/11 04:36:44;;;;;;;;;;;;;;;;;;5052068;28;4550;-72
2023/04/11 04:39:10;;;;;;;;;;;;;;;;;;5049586;28;4486;-74
2023/04/11 04:41:35;;;;;;;;;;;;;;;;;;5050005;28;4424;-74
2023/04/11 04:44:03;;;;;;;;;;;;;;;;;;5088486;28;4626;-73
2023/04/11 04:46:35;;;;;;;;;;;;;;;;;;5045215;28;4717;-71
2023/04/11 04:49:00;;;;;;;;;;;;;;;;;;5048510;28;3374;-71
2023/04/11 04:51:28;;;;;;;;;;;;;;;;;;5049844;28;4459;-70
2023/04/11 04:53:56;;;;;;;;;;;;;;;;;;5049623;28;4506;-68
2023/04/11 04:56:21;;;;;;;;;;;;;;;;;;5044208;28;4558;-66
2023/04/11 04:58:46;;;;;;;;;;;;;;;;;;5040492;28;4771;-65
2023/04/11 05:01:12;;;;;;;;;;;;;;;;;;5048502;28;3373;-66
2023/04/11 05:03:37;;;;;;;;;;;;;;;;;;5054066;28;4520;-66
2023/04/11 05:06:02;;;;;;;;;;;;;;;;;;5049381;28;4839;-66
2023/04/11 05:08:28;;;;;;;;;;;;;;;;;;5054194;28;5192;-67
2023/04/11 05:10:53;;;;;;;;;;;;;;;;;;5049947;28;4633;-66
2023/04/11 05:13:18;;;;;;;;;;;;;;;;;;5052567;28;1380;-66
2023/04/11 05:15:47;;;;;;;;;;;;;;;;;;5048709;28;4556;-66
2023/04/11 05:18:12;;;;;;;;;;;;;;;;;;5051383;28;5482;-66
2023/04/11 05:20:38;;;;;;;;;;;;;;;;;;5056901;28;4424;-66
2023/04/11 05:23:03;;;;;;;;;;;;;;;;;;5048478;28;4717;-65
2023/04/11 05:25:29;;;;;;;;;;;;;;;;;;5051133;28;4713;-66
2023/04/11 05:27:54;;;;;;;;;;;;;;;;;;5054125;28;1987;-65
2023/04/11 05:30:19;;;;;;;;;;;;;;;;;;5055957;28;5159;-65
2023/04/11 05:32:45;;;;;;;;;;;;;;;;;;5048616;28;4623;-65
2023/04/11 05:35:10;;;;;;;;;;;;;;;;;;5052826;28;4491;-65
2023/04/11 05:37:36;;;;;;;;;;;;;;;;;;5054198;28;4597;-66
2023/04/11 05:40:01;;;;;;;;;;;;;;;;;;5053762;28;1140;-65
2023/04/11 05:42:26;;;;;;;;;;;;;;;;;;5054194;28;4413;-65
2023/04/11 05:44:52;;;;;;;;;;;;;;;;;;5045348;28;5067;-65
2023/04/11 05:47:17;;;;;;;;;;;;;;;;;;5058289;28;4511;-65
2023/04/11 05:49:42;;;;;;;;;;;;;;;;;;5048066;28;4686;-65
2023/04/11 05:52:07;;;;;;;;;;;;;;;;;;5050043;28;1074;-65
2023/04/11 05:54:33;;;;;;;;;;;;;;;;;;5050927;28;4400;-65
2023/04/11 05:56:59;;;;;;;;;;;;;;;;;;5052508;28;4662;-65
2023/04/11 05:59:24;;;;;;;;;;;;;;;;;;5053214;28;4584;-65
2023/04/11 06:01:50;;;;;;;;;;;;;;;;;;5050346;28;4509;-65
2023/04/11 06:04:15;;;;;;;;;;;;;;;;;;5083101;28;1128;-66
2023/04/11 06:06:42;;;;;;;;;;;;;;;;;;5049196;28;4550;-66
2023/04/11 06:09:07;;;;;;;;;;;;;;;;;;5081313;28;4995;-66
2023/04/11 06:11:33;;;;;;;;;;;;;;;;;;5058533;28;4518;-65
2023/04/11 06:13:58;;;;;;;;;;;;;;;;;;5057897;28;4950;-65
2023/04/11 06:16:23;;;;;;;;;;;;;;;;;;5052286;28;4492;-66
2023/04/11 06:18:49;;;;;;;;;;;;;;;;;;5033753;28;1940;-66
2023/04/11 06:21:14;;;;;;;;;;;;;;;;;;5045119;28;4642;-65
2023/04/11 06:23:39;;;;;;;;;;;;;;;;;;5055206;28;4732;-66
2023/04/11 06:26:04;;;;;;;;;;;;;;;;;;5050546;28;4701;-66
2023/04/11 06:28:30;;;;;;;;;;;;;;;;;;5057531;28;4655;-65
2023/04/11 06:30:55;;;;;;;;;;;;;;;;;;5050162;28;1304;-66
2023/04/11 06:33:20;;;;;;;;;;;;;;;;;;5050556;28;5110;-66
2023/04/11 06:35:45;;;;;;;;;;;;;;;;;;5056288;28;4599;-65
2023/04/11 06:38:11;;;;;;;;;;;;;;;;;;5052670;28;4913;-66
2023/04/11 06:40:36;;;;;;;;;;;;;;;;;;5047133;28;5639;-65
2023/04/11 06:43:02;;;;;;;;;;;;;;;;;;5049792;28;3133;-66
2023/04/11 06:45:27;;;;;;;;;;;;;;;;;;5051323;28;4582;-65
2023/04/11 06:47:52;;;;;;;;;;;;;;;;;;5055625;28;4600;-66
2023/04/11 06:50:17;;;;;;;;;;;;;;;;;;5049509;28;5068;-65
2023/04/11 06:52:43;;;;;;;;;;;;;;;;;;5054025;28;4945;-66
2023/04/11 06:55:09;;;;;;;;;;;;;;;;;;5053173;28;1278;-66
2023/04/11 06:57:34;;;;;;;;;;;;;;;;;;5052228;28;5428;-65
2023/04/11 06:59:59;;;;;;;;;;;;;;;;;;5046037;28;4557;-65
2023/04/11 07:02:25;;;;;;;;;;;;;;;;;;5053805;28;4459;-65
2023/04/11 07:04:50;;;;;;;;;;;;;;;;;;5047453;28;4599;-65
2023/04/11 07:07:15;;;;;;;;;;;;;;;;;;5053547;28;1852;-65
2023/04/11 07:09:42;;;;;;;;;;;;;;;;;;5056940;28;4994;-65
2023/04/11 07:12:07;;;;;;;;;;;;;;;;;;5054429;28;4528;-65
2023/04/11 07:14:32;;;;;;;;;;;;;;;;;;5046596;28;4462;-65
2023/04/11 07:16:58;;;;;;;;;;;;;;;;;;5048988;28;4501;-65
2023/04/11 07:19:23;;;;;;;;;;;;;;;;;;5050009;28;4985;-65
2023/04/11 07:21:48;;;;;;;;;;;;;;;;;;5049509;28;1093;-65
2023/04/11 07:24:17;;;;;;;;;;;;;;;;;;5049785;28;5031;-67
2023/04/11 07:26:45;;;;;;;;;;;;;;;;;;5050512;28;4468;-65
2023/04/11 07:29:10;;;;;;;;;;;;;;;;;;5048142;28;5117;-64
2023/04/11 07:31:35;;;;;;;;;;;;;;;;;;5050035;28;4618;-60
2023/04/11 07:34:00;;;;;;;;;;;;;;;;;;5054471;28;3365;-60
2023/04/11 07:36:26;;;;;;;;;;;;;;;;;;5061363;28;4575;-61
2023/04/11 07:38:51;;;;;;;;;;;;;;;;;;5060562;28;5081;-61
2023/04/11 07:41:16;;;;;;;;;;;;;;;;;;5057939;28;4891;-61
2023/04/11 07:43:42;;;;;;;;;;;;;;;;;;5043743;28;4438;-61
2023/04/11 07:46:07;;;;;;;;;;;;;;;;;;5057033;28;1193;-60
2023/04/11 07:48:32;;;;;;;;;;;;;;;;;;5060234;28;4421;-60
2023/04/11 07:50:58;;;;;;;;;;;;;;;;;;5054818;28;4440;-61
2023/04/11 07:53:23;;;;;;;;;;;;;;;;;;5057789;28;5056;-61
2023/04/11 07:55:48;;;;;;;;;;;;;;;;;;5047608;28;4659;-62
2023/04/11 07:58:14;;;;;;;;;;;;;;;;;;5047021;28;1281;-62
2023/04/11 08:00:39;;;;;;;;;;;;;;;;;;5049407;28;4606;-61
2023/04/11 08:03:05;;;;;;;;;;;;;;;;;;5049713;28;5002;-64
2023/04/11 08:05:30;;;;;;;;;;;;;;;;;;5046995;28;4622;-61
2023/04/11 08:07:56;;;;;;;;;;;;;;;;;;5050529;28;4962;-61
2023/04/11 08:10:21;;;;;;;;;;;;;;;;;;5043365;28;1239;-61
2023/04/11 08:12:46;;;;;;;;;;;;;;;;;;5049035;28;4611;-61
2023/04/11 08:15:12;;;;;;;;;;;;;;;;;;5043244;28;4569;-62
2023/04/11 08:17:37;;;;;;;;;;;;;;;;;;5045396;28;4629;-61
2023/04/11 08:20:21;;;;;;;;;;;;;;;;;;5049888;28;4419;-61
2023/04/11 08:22:47;;;;;;;;;;;;;;;;;;5043256;28;5029;-61
2023/04/11 08:25:13;;;;;;;;;;;;;;;;;;5070621;28;4940;-60
2023/04/11 08:27:38;;;;;;;;;;;;;;;;;;5074657;28;5006;-61
2023/04/11 08:30:04;;;;;;;;;;;;;;;;;;5048974;28;4455;-61
2023/04/11 08:32:30;;;;;;;;;;;;;;;;;;5045334;28;4612;-60
2023/04/11 08:34:55;;;;;;;;;;;;;;;;;;5050402;28;4539;-60
2023/04/11 08:37:20;;;;;;;;;;;;;;;;;;5049436;28;3266;-60
2023/04/11 08:39:46;;;;;;;;;;;;;;;;;;5060491;28;4891;-60
2023/04/11 08:42:27;;;;;;;;;;;;;;;;;;5041185;28;5045;-60
2023/04/11 08:44:56;;;;;;;;;;;;;;;;;;5047192;28;4871;-60
2023/04/11 08:47:22;;;;;;;;;;;;;;;;;;5049236;28;4645;-61
2023/04/11 08:49:47;;;;;;;;;;;;;;;;;;5073697;28;4504;-60
2023/04/11 08:52:12;;;;;;;;;;;;;;;;;;5042785;28;1101;-61
2023/04/11 08:54:38;;;;;;;;;;;;;;;;;;5048932;28;4930;-60
2023/04/11 08:57:03;;;;;;;;;;;;;;;;;;5048845;28;4428;-61
2023/04/11 08:59:28;;;;;;;;;;;;;;;;;;5039742;28;4539;-60
2023/04/11 09:02:04;;;;;;;;;;;;;;;;;;5048540;28;4942;-59
2023/04/11 09:04:37;;;;;;;;;;;;;;;;;;5048607;28;4447;-61
2023/04/11 09:07:04;;;;;;;;;;;;;;;;;;5047425;28;1897;-60
2023/04/11 09:09:30;;;;;;;;;;;;;;;;;;5045368;28;4719;-60
2023/04/11 09:11:55;;;;;;;;;;;;;;;;;;5048605;28;4481;-60
2023/04/11 09:14:24;;;;;;;;;;;;;;;;;;5041891;28;4458;-60
2023/04/11 09:16:59;;;;;;;;;;;;;;;;;;5042495;28;5086;-60
2023/04/11 09:19:28;;;;;;;;;;;;;;;;;;5045191;28;4809;-60
2023/04/11 09:21:55;;;;;;;;;;;;;;;;;;5043750;28;1229;-60
2023/04/11 09:24:21;;;;;;;;;;;;;;;;;;5045898;28;4761;-61
2023/04/11 09:26:46;;;;;;;;;;;;;;;;;;5042969;28;4994;-60
2023/04/11 09:29:15;;;;;;;;;;;;;;;;;;5043725;28;5135;-61
2023/04/11 09:31:41;;;;;;;;;;;;;;;;;;5045500;28;5178;-61
2023/04/11 09:34:06;;;;;;;;;;;;;;;;;;5072185;28;3225;-61
2023/04/11 09:36:31;;;;;;;;;;;;;;;;;;5041792;28;4432;-61
2023/04/11 09:38:57;;;;;;;;;;;;;;;;;;5072731;28;4539;-60
2023/04/11 09:41:32;;;;;;;;;;;;;;;;;;5067516;28;5407;-61
2023/04/11 09:43:57;;;;;;;;;;;;;;;;;;5044546;28;4755;-60
2023/04/11 09:46:23;;;;;;;;;;;;;;;;;;5046598;28;2828;-61
2023/04/11 09:48:49;;;;;;;;;;;;;;;;;;5046784;28;4919;-60
2023/04/11 09:51:15;;;;;;;;;;;;;;;;;;5047195;28;4503;-65
2023/04/11 09:53:40;;;;;;;;;;;;;;;;;;5042752;28;4609;-66
2023/04/11 09:56:06;;;;;;;;;;;;;;;;;;5041571;28;4853;-62
2023/04/11 09:58:32;;;;;;;;;;;;;;;;;;5046204;28;5613;-77
2023/04/11 10:00:58;;;;;;;;;;;;;;;;;;5047910;28;2973;-73
2023/04/11 10:03:25;;;;;;;;;;;;;;;;;;5043622;28;4447;-76
2023/04/11 10:05:51;;;;;;;;;;;;;;;;;;5047415;28;4482;-75
2023/04/11 10:08:21;;;;;;;;;;;;;;;;;;5046488;28;4659;-77
2023/04/11 10:10:46;;;;;;;;;;;;;;;;;;5075291;28;4935;-66
2023/04/11 10:13:30;;;;;;;;;;;;;;;;;;5042663;28;1405;-69
2023/04/11 10:16:12;;;;;;;;;;;;;;;;;;5045786;28;4576;-65
2023/04/11 10:18:39;;;;;;;;;;;;;;;;;;5037428;28;4393;-65
2023/04/11 10:21:06;;;;;;;;;;;;;;;;;;5067955;28;4435;-65
2023/04/11 10:23:51;;;;;;;;;;;;;;;;;;5078646;28;4956;-66
2023/04/11 10:26:16;;;;;;;;;;;;;;;;;;5045042;28;4734;-65
2023/04/11 10:28:42;;;;;;;;;;;;;;;;;;5045757;28;5218;-66
2023/04/11 10:31:12;;;;;;;;;;;;;;;;;;5048195;28;1147;-65
2023/04/11 10:33:39;;;;;;;;;;;;;;;;;;5045215;28;4386;-64
2023/04/11 10:36:11;;;;;;;;;;;;;;;;;;5051237;28;4979;-65
2023/04/11 10:38:42;;;;;;;;;;;;;;;;;;5045993;28;4612;-65
2023/04/11 10:43:52;;;;;;;;;;;;;;;;;;5045740;28;5007;-65
2023/04/11 10:46:20;;;;;;;;;;;;;;;;;;5066027;28;3112;-71
2023/04/11 10:48:56;;;;;;;;;;;;;;;;;;5041217;28;4561;-71
2023/04/11 10:51:23;;;;;;;;;;;;;;;;;;5040314;28;4633;-64
2023/04/11 10:53:48;;;;;;;;;;;;;;;;;;5065410;28;5087;-66
2023/04/11 10:56:13;;;;;;;;;;;;;;;;;;5041032;28;4592;-65
2023/04/11 10:58:39;;;;;;;;;;;;;;;;;;5041559;28;4632;-64
2023/04/11 11:01:10;;;;;;;;;;;;;;;;;;5041870;28;1176;-65
2023/04/11 11:03:36;;;;;;;;;;;;;;;;;;5046413;28;4438;-63
2023/04/11 11:06:05;;;;;;;;;;;;;;;;;;5076644;28;5134;-63
2023/04/11 11:08:40;;;;;;;;;;;;;;;;;;5050178;28;4512;-64
2023/04/11 11:11:09;;;;;;;;;;;;;;;;;;5050538;28;5013;-62
2023/04/11 11:13:40;;;;;;;;;;;;;;;;;;5045168;28;4467;-70
2023/04/11 11:16:06;;;;;;;;;;;;;;;;;;5050486;28;1225;-65
2023/04/11 11:18:33;;;;;;;;;;;;;;;;;;5045521;28;4823;-64
2023/04/11 11:20:58;;;;;;;;;;;;;;;;;;5047154;28;5046;-60
2023/04/11 11:23:24;;;;;;;;;;;;;;;;;;5042811;28;5055;-66
2023/04/11 11:25:55;;;;;;;;;;;;;;;;;;5044763;28;4660;-61
2023/04/11 11:28:21;;;;;;;;;;;;;;;;;;5040478;28;3313;-64
2023/04/11 11:30:53;;;;;;;;;;;;;;;;;;5050601;28;5032;-64
2023/04/11 11:33:18;;;;;;;;;;;;;;;;;;5040018;28;4720;-63
2023/04/11 11:35:45;;;;;;;;;;;;;;;;;;5050127;28;4462;-65
2023/04/11 11:38:10;;;;;;;;;;;;;;;;;;5050395;28;4630;-65
2023/04/11 11:40:36;;;;;;;;;;;;;;;;;;5046037;28;4499;-67
2023/04/11 11:43:01;;;;;;;;;;;;;;;;;;5039205;28;1731;-68
2023/04/11 11:45:26;;;;;;;;;;;;;;;;;;5047041;28;5095;-66
2023/04/11 11:47:52;;;;;;;;;;;;;;;;;;5054861;28;4465;-62
2023/04/11 11:50:29;;;;;;;;;;;;;;;;;;5049375;28;4908;-60
2023/04/11 11:52:57;;;;;;;;;;;;;;;;;;5050080;28;4927;-63
2023/04/11 11:55:23;;;;;;;;;;;;;;;;;;5042751;28;3026;-62
2023/04/11 11:57:49;;;;;;;;;;;;;;;;;;5049784;28;4963;-62
2023/04/11 12:00:15;;;;;;;;;;;;;;;;;;5037585;28;4521;-64
2023/04/11 12:02:43;;;;;;;;;;;;;;;;;;5078633;28;4486;-62
2023/04/11 12:05:09;;;;;;;;;;;;;;;;;;5044784;28;4517;-63
2023/04/11 12:07:36;;;;;;;;;;;;;;;;;;5046117;28;5294;-63
2023/04/11 12:10:09;;;;;;;;;;;;;;;;;;5044782;28;3313;-64
2023/04/11 12:12:35;;;;;;;;;;;;;;;;;;5045903;28;4697;-64
2023/04/11 12:15:01;;;;;;;;;;;;;;;;;;5044570;28;4505;-62
2023/04/11 12:17:32;;;;;;;;;;;;;;;;;;5047667;28;4919;-66
2023/04/11 12:19:58;;;;;;;;;;;;;;;;;;5046811;28;4985;-61
2023/04/11 12:22:23;;;;;;;;;;;;;;;;;;5039976;28;4690;-66
2023/04/11 12:24:50;;;;;;;;;;;;;;;;;;5044798;28;4658;-65
2023/04/11 12:27:16;;;;;;;;;;;;;;;;;;5043938;28;6186;-67
2023/04/11 12:29:41;;;;;;;;;;;;;;;;;;5044963;28;5107;-65
2023/04/11 12:32:06;;;;;;;;;;;;;;;;;;5042586;28;4880;-66
2023/04/11 12:34:31;;;;;;;;;;;;;;;;;;5047405;28;4675;-66
2023/04/11 12:36:56;;;;;;;;;;;;;;;;;;5040303;28;3233;-68
2023/04/11 12:39:22;;;;;;;;;;;;;;;;;;5061577;28;4925;-68
2023/04/11 12:41:47;;;;;;;;;;;;;;;;;;5043140;28;4659;-65
2023/04/11 12:44:12;;;;;;;;;;;;;;;;;;5041843;28;4496;-66
2023/04/11 12:46:38;;;;;;;;;;;;;;;;;;5049140;28;4717;-68
2023/04/11 12:49:03;;;;;;;;;;;;;;;;;;5044432;28;3242;-68
2023/04/11 12:51:28;;;;;;;;;;;;;;;;;;5043539;28;4488;-63
2023/04/11 12:53:54;;;;;;;;;;;;;;;;;;5041785;28;4634;-65
2023/04/11 12:56:19;;;;;;;;;;;;;;;;;;5042732;28;4726;-67
2023/04/11 12:58:44;;;;;;;;;;;;;;;;;;5041093;28;4971;-66
2023/04/11 13:01:10;;;;;;;;;;;;;;;;;;5048087;28;3233;-69
2023/04/11 13:03:37;;;;;;;;;;;;;;;;;;5043224;28;5064;-67
2023/04/11 13:06:02;;;;;;;;;;;;;;;;;;5038129;28;4922;-67
2023/04/11 13:08:27;;;;;;;;;;;;;;;;;;5038349;28;5039;-71
2023/04/11 13:10:52;;;;;;;;;;;;;;;;;;5042505;28;4509;-64
2023/04/11 13:13:18;;;;;;;;;;;;;;;;;;5045727;28;3107;-65
2023/04/11 13:15:43;;;;;;;;;;;;;;;;;;5040946;28;5066;-67
2023/04/11 13:18:08;;;;;;;;;;;;;;;;;;5043301;28;4471;-66
2023/04/11 13:20:34;;;;;;;;;;;;;;;;;;5037539;28;4743;-65
2023/04/11 13:22:59;;;;;;;;;;;;;;;;;;5044019;28;4848;-66
2023/04/11 13:25:24;;;;;;;;;;;;;;;;;;5040483;28;5202;-66
2023/04/11 13:27:50;;;;;;;;;;;;;;;;;;5043005;28;2984;-65
2023/04/11 13:30:15;;;;;;;;;;;;;;;;;;5067533;28;4494;-71
2023/04/11 13:32:40;;;;;;;;;;;;;;;;;;5038297;28;4445;-61
2023/04/11 13:35:06;;;;;;;;;;;;;;;;;;5039236;28;4688;-62
2023/04/11 13:37:31;;;;;;;;;;;;;;;;;;5044001;28;4459;-61
2023/04/11 13:39:56;;;;;;;;;;;;;;;;;;5037476;28;3292;-61
2023/04/11 13:42:22;;;;;;;;;;;;;;;;;;5036321;28;4581;-66
2023/04/11 13:44:47;;;;;;;;;;;;;;;;;;5039426;28;4468;-64
2023/04/11 13:47:12;;;;;;;;;;;;;;;;;;5036715;28;5130;-63
2023/04/11 13:49:37;;;;;;;;;;;;;;;;;;5042255;28;4653;-63
2023/04/11 13:52:03;;;;;;;;;;;;;;;;;;5046911;28;1196;-62
2023/04/11 13:54:29;;;;;;;;;;;;;;;;;;5045963;28;5100;-63
2023/04/11 13:56:55;;;;;;;;;;;;;;;;;;5041584;28;4637;-63
2023/04/11 13:59:20;;;;;;;;;;;;;;;;;;5045997;28;5279;-62
2023/04/11 14:01:46;;;;;;;;;;;;;;;;;;5046002;28;5071;-63
2023/04/11 14:04:11;;;;;;;;;;;;;;;;;;5046546;28;1182;-63
2023/04/11 14:06:37;;;;;;;;;;;;;;;;;;5047621;28;4610;-62
2023/04/11 14:09:04;;;;;;;;;;;;;;;;;;5079324;28;4454;-62
2023/04/11 14:11:29;;;;;;;;;;;;;;;;;;5046186;28;4839;-62
2023/04/11 14:13:55;;;;;;;;;;;;;;;;;;5041474;28;4607;-62
2023/04/11 14:16:20;;;;;;;;;;;;;;;;;;5043163;28;1182;-63
2023/04/11 14:18:45;;;;;;;;;;;;;;;;;;5042192;28;4429;-62
2023/04/11 14:21:11;;;;;;;;;;;;;;;;;;5045482;28;4484;-62
2023/04/11 14:23:36;;;;;;;;;;;;;;;;;;5044502;28;5440;-63
2023/04/11 14:26:01;;;;;;;;;;;;;;;;;;5043007;28;4605;-63
2023/04/11 14:28:26;;;;;;;;;;;;;;;;;;5040557;28;4875;-62
2023/04/11 14:30:52;;;;;;;;;;;;;;;;;;5040051;28;3727;-63
2023/04/11 14:33:17;;;;;;;;;;;;;;;;;;5050498;28;4581;-62
2023/04/11 14:35:45;;;;;;;;;;;;;;;;;;5047381;28;4586;-61
2023/04/11 14:38:11;;;;;;;;;;;;;;;;;;5044423;28;5044;-63
2023/04/11 14:40:36;;;;;;;;;;;;;;;;;;5047719;28;4535;-62
2023/04/11 14:43:01;;;;;;;;;;;;;;;;;;5048031;28;2163;-63
2023/04/11 14:45:27;;;;;;;;;;;;;;;;;;5043200;28;4888;-62
2023/04/11 14:47:52;;;;;;;;;;;;;;;;;;5045403;28;4633;-61
2023/04/11 14:50:17;;;;;;;;;;;;;;;;;;5048178;28;4869;-63
2023/04/11 14:52:43;;;;;;;;;;;;;;;;;;5051240;28;4525;-62
2023/04/11 14:55:08;;;;;;;;;;;;;;;;;;5050712;28;3120;-64
2023/04/11 14:57:46;;;;;;;;;;;;;;;;;;5045330;28;4611;-61
2023/04/11 15:00:17;;;;;;;;;;;;;;;;;;5039763;28;5136;-60
2023/04/11 15:02:42;;;;;;;;;;;;;;;;;;5038738;28;5106;-64
2023/04/11 15:05:08;;;;;;;;;;;;;;;;;;5044375;28;4638;-62
2023/04/11 15:07:34;;;;;;;;;;;;;;;;;;5050563;28;5114;-61
2023/04/11 15:10:00;;;;;;;;;;;;;;;;;;5048955;28;3066;-63
2023/04/11 15:12:25;;;;;;;;;;;;;;;;;;5045908;28;4775;-68
2023/04/11 15:14:50;;;;;;;;;;;;;;;;;;5043099;28;5219;-63
2023/04/11 15:17:15;;;;;;;;;;;;;;;;;;5045236;28;5025;-67
2023/04/11 15:19:41;;;;;;;;;;;;;;;;;;5040089;28;4467;-65
2023/04/11 15:22:06;;;;;;;;;;;;;;;;;;5051076;28;1108;-64
2023/04/11 15:24:31;;;;;;;;;;;;;;;;;;5081807;28;4977;-66
2023/04/11 15:26:57;;;;;;;;;;;;;;;;;;5050149;28;4443;-66
2023/04/11 15:29:22;;;;;;;;;;;;;;;;;;5049080;28;4598;-63
2023/04/11 15:31:47;;;;;;;;;;;;;;;;;;5049710;28;5970;-65
2023/04/11 15:34:15;;;;;;;;;;;;;;;;;;5050264;28;1910;-63
2023/04/11 15:36:41;;;;;;;;;;;;;;;;;;5049670;28;4544;-68
2023/04/11 15:39:07;;;;;;;;;;;;;;;;;;5045824;28;4658;-66
2023/04/11 15:41:32;;;;;;;;;;;;;;;;;;5071963;28;4498;-63
2023/04/11 15:43:59;;;;;;;;;;;;;;;;;;5043252;28;4626;-65
2023/04/11 15:46:25;;;;;;;;;;;;;;;;;;5050255;28;4685;-66
2023/04/11 15:48:51;;;;;;;;;;;;;;;;;;5049006;28;3166;-67
2023/04/11 15:51:16;;;;;;;;;;;;;;;;;;5049364;28;4943;-63
2023/04/11 15:53:41;;;;;;;;;;;;;;;;;;5048902;28;5039;-66
2023/04/11 15:56:07;;;;;;;;;;;;;;;;;;5049434;28;4699;-62
2023/04/11 15:58:32;;;;;;;;;;;;;;;;;;5051122;28;4548;-65
2023/04/11 16:01:01;;;;;;;;;;;;;;;;;;5042651;28;3419;-61
2023/04/11 16:03:30;;;;;;;;;;;;;;;;;;5047980;28;4467;-62
2023/04/11 16:05:56;;;;;;;;;;;;;;;;;;5048852;28;4841;-60
2023/04/11 16:08:21;;;;;;;;;;;;;;;;;;5046972;28;5030;-64
2023/04/11 16:10:46;;;;;;;;;;;;;;;;;;5049961;28;4482;-62
2023/04/11 16:13:12;;;;;;;;;;;;;;;;;;5046341;28;1400;-62
2023/04/11 16:15:37;;;;;;;;;;;;;;;;;;5044600;28;5139;-63
2023/04/11 16:18:02;;;;;;;;;;;;;;;;;;5045614;28;4431;-62
2023/04/11 16:20:28;;;;;;;;;;;;;;;;;;5049544;28;5056;-63
2023/04/11 16:22:53;;;;;;;;;;;;;;;;;;5044051;28;5975;-63
2023/04/11 16:25:19;;;;;;;;;;;;;;;;;;5038663;28;4665;-61
2023/04/11 16:27:45;;;;;;;;;;;;;;;;;;5047736;28;4454;-60
2023/04/11 16:30:11;;;;;;;;;;;;;;;;;;5048479;28;4484;-61
2023/04/11 16:32:36;;;;;;;;;;;;;;;;;;5047664;28;5061;-61
2023/04/11 16:35:01;;;;;;;;;;;;;;;;;;5049371;28;5053;-63
2023/04/11 16:37:27;;;;;;;;;;;;;;;;;;5042602;28;4739;-62
2023/04/11 16:39:52;;;;;;;;;;;;;;;;;;5041774;28;3228;-61
2023/04/11 16:42:18;;;;;;;;;;;;;;;;;;5047059;28;4456;-61
2023/04/11 16:44:43;;;;;;;;;;;;;;;;;;5039259;28;4823;-61
2023/04/11 16:47:08;;;;;;;;;;;;;;;;;;5044170;28;4504;-62
2023/04/11 16:49:33;;;;;;;;;;;;;;;;;;5037568;28;4641;-62
2023/04/11 16:51:59;;;;;;;;;;;;;;;;;;5046565;28;3257;-61
2023/04/11 16:54:24;;;;;;;;;;;;;;;;;;5042457;28;4783;-60
2023/04/11 16:56:50;;;;;;;;;;;;;;;;;;5045708;28;4451;-63
2023/04/11 16:59:15;;;;;;;;;;;;;;;;;;5048791;28;4463;-65